Time;durP1;ratioP1;P1;durP2;ratioP2;P2;SDS_P1;SDS_P2;PMS_P1;PMS_P2;Temp;Humidity;BMP_temperature;BMP_pressure;BME280_temperature;BME280_humidity;BME280_pressure;Samples;Min_cycle;Max_cycle;Signal;HPM_P1;HPM_P2
2023/02/28 00:00:32;;;;;;;24.75;13.90;;;;;;;7.29;71.89;94295.13;5041901;28;20038;-77
2023/02/28 00:02:58;;;;;;;17.83;13.30;;;;;;;7.21;71.05;94300.25;5040809;28;20048;-77
2023/02/28 00:05:26;;;;;;;19.25;12.23;;;;;;;7.14;71.59;94270.72;5043354;28;20036;-78
2023/02/28 00:07:51;;;;;;;21.35;11.77;;;;;;;7.43;70.66;94274.13;5041512;28;20055;-77
2023/02/28 00:10:35;;;;;;;15.32;11.27;;;;;;;7.63;69.56;94271.22;5043826;28;20024;-77
2023/02/28 00:13:04;;;;;;;20.80;9.48;;;;;;;7.73;69.09;94287.00;5037553;28;20025;-77
2023/02/28 00:15:30;;;;;;;18.23;8.85;;;;;;;7.78;68.55;94293.34;5043964;28;20033;-78
2023/02/28 00:17:56;;;;;;;12.23;7.93;;;;;;;7.17;70.30;94270.94;5042519;28;20056;-77
2023/02/28 00:20:21;;;;;;;13.82;8.68;;;;;;;7.12;70.45;94291.34;5045952;28;20108;-77
2023/02/28 00:22:49;;;;;;;13.25;8.25;;;;;;;7.45;69.79;94295.78;5049725;28;20669;-77
2023/02/28 00:25:17;;;;;;;12.90;8.88;;;;;;;7.54;69.55;94301.22;5047840;28;20040;-77
2023/02/28 00:27:44;;;;;;;12.50;7.60;;;;;;;7.73;68.63;94309.28;5041235;28;20067;-78
2023/02/28 00:30:15;;;;;;;14.40;8.23;;;;;;;7.86;68.06;94304.09;5038241;28;20479;-77
2023/02/28 00:32:40;;;;;;;8.75;7.00;;;;;;;7.75;68.00;94272.69;5040061;28;20517;-77
2023/02/28 00:35:07;;;;;;;11.02;7.97;;;;;;;7.94;68.19;94297.34;5043496;28;21064;-77
2023/02/28 00:37:32;;;;;;;11.18;8.30;;;;;;;8.00;67.51;94293.56;5047595;28;20148;-77
2023/02/28 00:40:00;;;;;;;13.68;6.80;;;;;;;8.08;66.79;94293.72;5045618;28;20619;-77
2023/02/28 00:42:25;;;;;;;8.20;5.00;;;;;;;8.09;66.31;94291.84;5041291;28;20060;-77
2023/02/28 00:44:51;;;;;;;6.07;5.13;;;;;;;7.97;66.59;94279.03;5043592;28;20028;-76
2023/02/28 00:47:16;;;;;;;13.25;5.22;;;;;;;8.10;67.01;94296.09;5045437;28;20037;-77
2023/02/28 00:49:42;;;;;;;11.45;6.43;;;;;;;8.13;65.83;94288.34;5044433;28;20028;-77
2023/02/28 00:52:07;;;;;;;12.18;7.88;;;;;;;7.76;67.13;94285.66;5042867;28;20227;-78
2023/02/28 00:54:33;;;;;;;10.60;6.97;;;;;;;7.92;66.87;94288.91;5040852;28;20041;-78
2023/02/28 00:56:59;;;;;;;15.05;9.52;;;;;;;7.77;67.03;94291.75;5045782;28;20037;-77
2023/02/28 00:59:24;;;;;;;11.70;8.90;;;;;;;7.62;68.03;94301.41;5045986;28;20164;-77
2023/02/28 01:01:49;;;;;;;14.45;9.73;;;;;;;7.73;67.16;94302.09;5043429;28;20041;-77
2023/02/28 01:04:15;;;;;;;11.38;8.43;;;;;;;7.92;66.40;94299.50;5044136;28;20028;-77
2023/02/28 01:06:40;;;;;;;16.42;10.15;;;;;;;7.96;65.88;94293.38;5060125;28;20579;-77
2023/02/28 01:09:06;;;;;;;19.08;11.75;;;;;;;7.74;66.20;94274.56;5044342;28;20030;-76
2023/02/28 01:11:33;;;;;;;15.80;11.35;;;;;;;7.54;67.98;94291.44;5045766;28;20125;-77
2023/02/28 01:13:59;;;;;;;13.88;10.93;;;;;;;7.71;66.73;94293.63;5045458;28;20025;-77
2023/02/28 01:16:25;;;;;;;17.20;10.23;;;;;;;7.61;66.09;94276.00;5042145;28;20036;-76
2023/02/28 01:18:50;;;;;;;13.57;10.20;;;;;;;7.78;66.04;94288.03;5045007;28;20020;-77
2023/02/28 01:21:18;;;;;;;18.92;12.32;;;;;;;7.51;66.87;94268.19;5042552;28;20585;-77
2023/02/28 01:23:44;;;;;;;14.05;10.05;;;;;;;7.74;65.95;94285.16;5045226;28;20051;-78
2023/02/28 01:26:15;;;;;;;15.88;10.30;;;;;;;7.45;67.07;94271.97;5054998;28;20056;-77
2023/02/28 01:28:41;;;;;;;16.05;11.05;;;;;;;7.63;67.47;94279.16;5059666;28;20024;-77
2023/02/28 01:31:07;;;;;;;19.40;11.57;;;;;;;7.79;67.06;94286.94;5055098;28;20017;-76
2023/02/28 01:33:33;;;;;;;24.08;12.50;;;;;;;7.77;66.50;94270.56;5046484;28;20068;-77
2023/02/28 01:36:06;;;;;;;21.05;13.40;;;;;;;7.51;68.41;94278.78;5048173;28;20029;-78
2023/02/28 01:38:33;;;;;;;23.73;15.07;;;;;;;7.51;68.46;94283.28;5046909;28;20037;-76
2023/02/28 01:40:58;;;;;;;22.77;15.18;;;;;;;7.29;68.93;94275.81;5049078;28;22852;-76
2023/02/28 01:43:26;;;;;;;25.08;15.48;;;;;;;6.85;70.79;94276.78;5047860;28;20137;-76
2023/02/28 01:45:53;;;;;;;23.02;14.95;;;;;;;7.17;70.79;94304.53;5052133;28;20051;-77
2023/02/28 01:48:22;;;;;;;22.20;15.02;;;;;;;7.58;68.68;94300.38;5048633;28;20642;-77
2023/02/28 01:50:48;;;;;;;31.45;20.65;;;;;;;7.09;70.01;94278.69;5045967;28;20028;-77
2023/02/28 01:53:19;;;;;;;37.78;20.23;;;;;;;7.26;70.01;94273.75;5055292;28;20694;-77
2023/02/28 01:55:50;;;;;;;35.63;21.02;;;;;;;7.29;69.29;94270.53;5047873;28;20040;-77
2023/02/28 01:58:16;;;;;;;56.72;25.88;;;;;;;7.71;67.69;94305.03;5050835;28;20029;-77
2023/02/28 02:00:42;;;;;;;74.30;25.60;;;;;;;7.45;67.73;94279.91;5050379;28;20984;-76
2023/02/28 02:03:15;;;;;;;39.85;26.48;;;;;;;7.50;68.07;94303.66;5047078;28;20053;-77
2023/02/28 02:05:41;;;;;;;44.33;25.20;;;;;;;7.52;68.02;94293.59;5048214;28;20047;-77
2023/02/28 02:08:12;;;;;;;60.35;26.58;;;;;;;7.14;69.29;94289.22;5050354;28;20659;-77
2023/02/28 02:10:46;;;;;;;39.72;24.77;;;;;;;7.41;68.78;94286.03;5050847;28;20053;-77
2023/02/28 02:13:23;;;;;;;35.63;23.60;;;;;;;7.44;68.28;94288.91;5047828;28;20021;-76
2023/02/28 02:16:05;;;;;;;38.97;23.58;;;;;;;7.03;68.45;94229.56;5051570;28;20647;-76
2023/02/28 02:18:36;;;;;;;131.15;30.80;;;;;;;7.46;68.55;94289.41;5046791;28;20973;-77
2023/02/28 02:21:30;;;;;;;66.68;28.38;;;;;;;7.41;68.47;94284.19;5046754;28;20596;-77
2023/02/28 02:24:14;;;;;;;101.28;28.63;;;;;;;7.45;68.38;94294.97;5048361;28;20037;-76
2023/02/28 02:26:51;;;;;;;63.17;24.90;;;;;;;7.51;67.80;94284.06;5049699;28;20041;-76
2023/02/28 02:29:33;;;;;;;53.58;28.17;;;;;;;7.54;68.04;94278.19;5050234;28;20036;-76
2023/02/28 02:32:17;;;;;;;121.30;29.67;;;;;;;7.56;67.84;94291.97;5059601;28;20104;-77
2023/02/28 02:34:57;;;;;;;80.90;37.15;;;;;;;7.44;68.21;94294.19;5055818;28;20104;-77
2023/02/28 02:37:40;;;;;;;71.38;29.60;;;;;;;7.37;68.81;94292.97;5049677;28;20104;-77
2023/02/28 02:40:31;;;;;;;213.93;34.45;;;;;;;7.32;68.85;94290.38;5047632;28;20055;-78
2023/02/28 02:43:10;;;;;;;238.57;35.42;;;;;;;7.44;68.59;94288.09;5052360;28;20037;-76
2023/02/28 02:45:45;;;;;;;111.05;29.33;;;;;;;7.33;68.73;94297.25;5049525;28;20315;-77
2023/02/28 02:48:15;;;;;;;128.73;28.15;;;;;;;7.12;69.25;94276.28;5046251;28;20037;-76
2023/02/28 02:50:49;;;;;;;85.25;26.25;;;;;;;7.20;69.15;94296.03;5049397;28;20045;-76
2023/02/28 02:53:17;;;;;;;109.30;31.85;;;;;;;7.33;68.81;94287.44;5048928;28;20037;-77
2023/02/28 02:55:46;;;;;;;82.32;26.80;;;;;;;7.31;68.92;94305.44;5051555;28;20119;-77
2023/02/28 02:58:15;;;;;;;60.78;24.58;;;;;;;7.32;68.85;94304.38;5047985;28;20088;-77
2023/02/28 03:00:46;;;;;;;142.63;32.90;;;;;;;7.23;69.29;94303.44;5047842;28;20034;-77
2023/02/28 03:03:13;;;;;;;188.30;32.92;;;;;;;7.17;69.33;94307.19;5050372;28;20048;-77
2023/02/28 03:05:50;;;;;;;78.18;24.98;;;;;;;7.03;70.08;94299.13;5049255;28;20067;-75
2023/02/28 03:08:16;;;;;;;78.15;24.17;;;;;;;7.22;69.43;94321.16;5047723;28;20401;-77
2023/02/28 03:10:45;;;;;;;234.48;30.27;;;;;;;6.59;71.45;94309.00;5047687;28;20037;-77
2023/02/28 03:13:20;;;;;;;174.70;27.92;;;;;;;6.37;73.44;94327.91;5049135;28;20025;-76
2023/02/28 03:16:11;;;;;;;229.40;30.05;;;;;;;6.33;73.51;94330.31;5048677;28;20037;-76
2023/02/28 03:18:37;;;;;;;138.70;26.33;;;;;;;6.68;72.39;94339.06;5035493;28;20063;-77
2023/02/28 03:21:09;;;;;;;127.40;25.42;;;;;;;6.54;72.57;94338.91;5046677;28;20050;-76
2023/02/28 03:24:02;;;;;;;235.80;28.67;;;;;;;6.32;74.07;94346.41;5046491;28;20060;-76
2023/02/28 03:26:29;;;;;;;166.38;27.27;;;;;;;6.31;73.28;94329.00;5044821;28;20036;-77
2023/02/28 03:29:26;;;;;;;67.30;24.35;;;;;;;6.29;72.89;94310.00;5046969;28;20085;-77
2023/02/28 03:31:57;;;;;;;107.05;23.90;;;;;;;6.15;74.42;94346.75;5044332;28;20696;-78
2023/02/28 03:34:48;;;;;;;136.48;26.25;;;;;;;6.30;73.97;94343.28;5050905;28;20030;-76
2023/02/28 03:37:18;;;;;;;124.60;27.23;;;;;;;6.24;73.67;94350.44;5058455;28;20024;-76
2023/02/28 03:39:50;;;;;;;143.88;27.15;;;;;;;5.58;76.84;94349.88;5048420;28;20040;-75
2023/02/28 03:42:19;;;;;;;102.38;25.00;;;;;;;5.46;76.79;94329.06;5046357;28;20029;-77
2023/02/28 03:44:53;;;;;;;123.38;26.50;;;;;;;5.62;77.17;94352.78;5045429;28;20030;-77
2023/02/28 03:47:28;;;;;;;103.80;24.25;;;;;;;5.25;78.34;94348.63;5063370;28;20037;-78
2023/02/28 03:49:56;;;;;;;;;;;;;;;5.44;77.43;94356.75;5047273;28;20126;-77
2023/02/28 03:52:27;;;;;;;57.33;21.65;;;;;;;5.11;78.47;94352.88;5044672;28;19917;-77
2023/02/28 03:55:00;;;;;;;126.63;26.20;;;;;;;4.89;79.62;94353.16;5049356;28;20046;-77
2023/02/28 03:57:25;;;;;;;68.40;22.30;;;;;;;5.49;78.97;94369.94;5047166;28;20317;-77
2023/02/28 04:00:12;;;;;;;53.78;20.95;;;;;;;5.90;76.76;94352.94;5049190;28;20111;-78
2023/02/28 04:02:39;;;;;;;42.17;21.38;;;;;;;6.29;75.02;94357.53;5045822;28;20032;-78
2023/02/28 04:05:05;;;;;;;58.08;21.20;;;;;;;6.20;74.77;94351.25;5046341;28;20033;-76
2023/02/28 04:07:31;;;;;;;38.17;20.33;;;;;;;6.26;74.81;94352.81;5046037;28;20065;-76
2023/02/28 04:09:58;;;;;;;77.78;22.65;;;;;;;6.20;73.91;94345.97;5046237;28;20029;-77
2023/02/28 04:12:24;;;;;;;76.63;23.20;;;;;;;6.08;74.70;94340.19;5044315;28;20052;-77
2023/02/28 04:14:49;;;;;;;61.83;22.60;;;;;;;6.39;74.01;94362.78;5048124;28;20040;-76
2023/02/28 04:17:15;;;;;;;46.00;22.33;;;;;;;6.17;74.82;94365.78;5044134;28;20025;-76
2023/02/28 04:19:41;;;;;;;47.38;19.70;;;;;;;6.38;73.37;94340.03;5047130;28;20048;-76
2023/02/28 04:22:08;;;;;;;64.75;22.02;;;;;;;5.44;75.57;94335.66;5045604;28;20045;-77
2023/02/28 04:24:35;;;;;;;50.33;22.15;;;;;;;5.16;78.53;94339.69;5048272;28;20167;-76
2023/02/28 04:27:01;;;;;;;78.97;23.15;;;;;;;4.65;80.17;94366.03;5045255;28;20673;-77
2023/02/28 04:29:32;;;;;;;47.67;20.88;;;;;;;4.88;80.41;94364.75;5047422;28;20075;-78
2023/02/28 04:31:58;;;;;;;37.05;19.10;;;;;;;4.86;80.06;94351.03;5043891;28;20669;-76
2023/02/28 04:34:25;;;;;;;44.28;19.30;;;;;;;4.47;80.57;94327.03;5048598;28;20626;-76
2023/02/28 04:36:54;;;;;;;40.97;21.55;;;;;;;4.25;82.03;94360.69;5043553;28;20507;-77
2023/02/28 04:39:20;;;;;;;34.45;19.23;;;;;;;4.79;80.63;94342.63;5051900;28;20041;-75
2023/02/28 04:41:46;;;;;;;40.55;17.80;;;;;;;5.36;78.72;94370.50;5056178;28;20031;-76
2023/02/28 04:44:12;;;;;;;35.03;16.85;;;;;;;5.57;77.46;94374.69;5054390;28;20068;-77
2023/02/28 04:46:37;;;;;;;28.08;14.38;;;;;;;5.64;76.13;94377.03;5043235;28;20044;-77
2023/02/28 04:49:02;;;;;;;37.22;17.88;;;;;;;5.80;75.20;94370.66;5045644;28;20033;-76
2023/02/28 04:51:28;;;;;;;39.88;17.85;;;;;;;5.44;75.82;94356.75;5048176;28;20187;-77
2023/02/28 04:53:54;;;;;;;37.13;17.25;;;;;;;5.82;75.55;94382.50;5046916;28;20059;-76
2023/02/28 04:56:20;;;;;;;59.88;19.88;;;;;;;5.72;74.96;94371.22;5051001;28;20114;-76
2023/02/28 04:58:46;;;;;;;33.63;17.88;;;;;;;5.82;74.62;94376.47;5043188;28;20112;-76
2023/02/28 05:01:29;;;;;;;33.05;17.25;;;;;;;5.97;74.26;94381.66;5049953;28;20044;-76
2023/02/28 05:03:57;;;;;;;35.08;18.17;;;;;;;6.22;73.24;94383.44;5043340;28;20037;-78
2023/02/28 05:06:25;;;;;;;72.75;19.88;;;;;;;6.27;72.76;94388.72;5045329;28;20087;-77
2023/02/28 05:08:51;;;;;;;36.13;17.95;;;;;;;6.15;72.24;94352.03;5047413;28;20025;-78
2023/02/28 05:11:23;;;;;;;39.15;17.27;;;;;;;6.27;72.79;94391.34;5049661;28;20121;-78
2023/02/28 05:13:50;;;;;;;30.65;17.63;;;;;;;5.80;73.66;94376.72;5050557;28;20041;-76
2023/02/28 05:16:16;;;;;;;31.33;16.80;;;;;;;6.00;73.08;94389.88;5049729;28;20029;-76
2023/02/28 05:18:41;;;;;;;29.52;16.98;;;;;;;5.71;74.31;94388.91;5047013;28;20025;-77
2023/02/28 05:21:24;;;;;;;36.67;17.63;;;;;;;5.82;73.74;94385.16;5052237;28;20048;-76
2023/02/28 05:23:49;;;;;;;28.00;15.93;;;;;;;5.83;73.70;94392.03;5064315;28;20032;-76
2023/02/28 05:26:15;;;;;;;37.28;17.00;;;;;;;6.07;73.31;94386.16;5056024;28;20037;-77
2023/02/28 05:28:40;;;;;;;37.63;16.58;;;;;;;6.24;72.38;94376.06;5047996;28;20040;-77
2023/02/28 05:31:05;;;;;;;30.17;17.25;;;;;;;6.51;71.77;94408.13;5051031;28;20028;-76
2023/02/28 05:33:31;;;;;;;50.15;20.00;;;;;;;6.07;72.64;94396.72;5050401;28;20042;-77
2023/02/28 05:35:56;;;;;;;51.15;26.55;;;;;;;5.73;74.22;94402.59;5050760;28;20053;-77
2023/02/28 05:38:21;;;;;;;65.05;25.48;;;;;;;5.68;74.63;94399.97;5049614;28;20040;-76
2023/02/28 05:40:47;;;;;;;50.42;22.25;;;;;;;5.44;75.65;94402.41;5051473;28;20096;-77
2023/02/28 05:43:13;;;;;;;36.90;20.23;;;;;;;5.99;74.65;94414.69;5052028;28;20033;-76
2023/02/28 05:45:38;;;;;;;33.78;18.20;;;;;;;6.35;73.07;94414.56;5059192;28;20041;-76
2023/02/28 05:48:04;;;;;;;31.13;18.30;;;;;;;6.40;71.78;94396.06;5056671;28;20029;-76
2023/02/28 05:50:29;;;;;;;38.08;21.10;;;;;;;6.63;71.57;94421.03;5050602;28;20060;-77
2023/02/28 05:52:55;;;;;;;31.13;18.98;;;;;;;6.41;71.75;94418.75;5050500;28;20029;-78
2023/02/28 05:55:20;;;;;;;29.05;17.83;;;;;;;6.29;72.33;94424.38;5049900;28;20115;-77
2023/02/28 05:57:45;;;;;;;33.08;19.63;;;;;;;6.12;73.10;94423.06;5051005;28;20066;-77
2023/02/28 06:00:12;;;;;;;37.35;20.05;;;;;;;5.99;73.48;94395.41;5050385;28;20049;-77
2023/02/28 06:02:39;;;;;;;34.65;19.65;;;;;;;5.78;74.24;94407.88;5048447;28;20037;-77
2023/02/28 06:05:05;;;;;;;36.22;21.02;;;;;;;5.81;74.48;94404.72;5048896;28;20424;-77
2023/02/28 06:07:30;;;;;;;34.20;20.75;;;;;;;6.16;73.58;94403.84;5046845;28;20049;-76
2023/02/28 06:09:56;;;;;;;35.63;20.55;;;;;;;6.34;72.61;94413.00;5049405;28;21300;-77
2023/02/28 06:12:21;;;;;;;38.08;21.10;;;;;;;6.45;72.39;94400.53;5046964;28;20029;-76
2023/02/28 06:14:47;;;;;;;37.17;20.48;;;;;;;6.74;70.85;94407.50;5050413;28;20100;-76
2023/02/28 06:17:12;;;;;;;35.67;20.13;;;;;;;6.30;71.78;94407.47;5047652;28;20044;-77
2023/02/28 06:19:41;;;;;;;30.85;18.73;;;;;;;6.35;72.01;94388.94;5040567;28;20119;-77
2023/02/28 06:22:06;;;;;;;34.35;20.00;;;;;;;6.58;71.29;94406.00;5051861;28;20214;-78
2023/02/28 06:24:32;;;;;;;33.75;20.67;;;;;;;6.46;71.52;94416.09;5048230;28;20029;-77
2023/02/28 06:27:04;;;;;;;33.97;20.77;;;;;;;5.87;74.14;94427.38;5048344;28;20044;-76
2023/02/28 06:29:31;;;;;;;32.38;21.00;;;;;;;5.86;74.31;94428.47;5047243;28;20048;-77
2023/02/28 06:31:56;;;;;;;31.63;20.85;;;;;;;5.85;74.52;94416.31;5047706;28;20160;-77
2023/02/28 06:34:21;;;;;;;31.58;20.40;;;;;;;6.15;73.55;94415.44;5048874;28;20103;-77
2023/02/28 06:36:49;;;;;;;33.17;19.35;;;;;;;6.45;72.53;94430.38;5044267;28;20021;-76
2023/02/28 06:39:15;;;;;;;36.08;22.10;;;;;;;6.15;73.35;94423.34;5045419;28;20040;-77
2023/02/28 06:41:40;;;;;;;34.38;21.65;;;;;;;6.10;73.98;94425.22;5048423;28;20039;-76
2023/02/28 06:44:12;;;;;;;35.40;22.45;;;;;;;6.55;73.13;94450.69;5048195;28;20135;-77
2023/02/28 06:46:41;;;;;;;39.33;23.80;;;;;;;6.63;72.05;94436.88;5047922;28;20572;-77
2023/02/28 06:49:10;;;;;;;50.13;31.65;;;;;;;6.70;71.28;94421.53;5054002;28;20057;-76
2023/02/28 06:51:38;;;;;;;38.25;23.33;;;;;;;6.49;72.43;94449.91;5055715;28;20049;-76
2023/02/28 06:54:04;;;;;;;40.97;23.55;;;;;;;6.59;72.59;94457.78;5046451;28;20083;-76
2023/02/28 06:56:30;;;;;;;45.80;27.48;;;;;;;6.89;71.52;94450.75;5047074;28;20048;-76
2023/02/28 06:58:55;;;;;;;43.67;27.08;;;;;;;6.91;70.65;94432.75;5045379;28;20037;-76
2023/02/28 07:01:24;;;;;;;47.22;27.00;;;;;;;6.71;71.08;94455.59;5039017;28;20302;-76
2023/02/28 07:03:52;;;;;;;40.78;25.50;;;;;;;6.50;72.46;94448.06;5041498;28;20039;-76
2023/02/28 07:06:18;;;;;;;47.25;26.92;;;;;;;6.28;73.15;94449.19;5039661;28;20044;-76
2023/02/28 07:08:44;;;;;;;43.40;26.83;;;;;;;6.63;72.81;94450.91;5038602;28;20445;-76
2023/02/28 07:11:09;;;;;;;44.38;26.63;;;;;;;6.64;72.72;94449.06;5037321;28;20069;-77
2023/02/28 07:13:35;;;;;;;44.05;28.77;;;;;;;6.77;71.95;94453.72;5040084;28;20030;-76
2023/02/28 07:16:03;;;;;;;110.28;58.92;;;;;;;6.31;73.66;94455.81;5041342;28;20017;-76
2023/02/28 07:18:29;;;;;;;51.47;30.10;;;;;;;6.36;73.51;94447.88;5039258;28;20041;-75
2023/02/28 07:20:55;;;;;;;51.90;30.83;;;;;;;5.86;75.18;94446.94;5040091;28;20349;-76
2023/02/28 07:23:22;;;;;;;51.42;32.20;;;;;;;6.27;74.85;94449.47;5042014;28;20055;-77
2023/02/28 07:25:47;;;;;;;51.00;28.88;;;;;;;6.65;73.53;94455.91;5041069;28;20631;-76
2023/02/28 07:28:13;;;;;;;45.80;31.55;;;;;;;6.63;72.75;94458.03;5040615;28;20327;-75
2023/02/28 07:30:40;;;;;;;49.50;28.85;;;;;;;6.79;72.55;94457.69;5042225;28;20255;-77
2023/02/28 07:33:05;;;;;;;46.13;30.30;;;;;;;6.80;71.78;94438.09;5038936;28;20056;-76
2023/02/28 07:35:31;;;;;;;51.78;29.45;;;;;;;6.92;71.50;94447.56;5040993;28;20744;-76
2023/02/28 07:38:00;;;;;;;50.08;29.70;;;;;;;7.05;71.87;94455.66;5042320;28;20040;-76
2023/02/28 07:40:26;;;;;;;55.67;28.42;;;;;;;7.23;70.75;94465.59;5038603;28;20037;-76
2023/02/28 07:42:51;;;;;;;53.45;29.30;;;;;;;7.23;71.04;94456.88;5041152;28;20017;-77
2023/02/28 07:45:17;;;;;;;60.10;28.27;;;;;;;7.22;70.19;94455.28;5041914;28;20134;-76
2023/02/28 07:47:43;;;;;;;45.90;27.60;;;;;;;7.30;70.43;94463.41;5042213;28;20075;-76
2023/02/28 07:50:12;;;;;;;60.47;29.38;;;;;;;7.35;70.35;94454.66;5043325;28;20136;-77
2023/02/28 07:52:38;;;;;;;50.92;30.17;;;;;;;7.12;71.17;94450.88;5046409;28;20030;-76
2023/02/28 07:55:07;;;;;;;55.47;36.25;;;;;;;7.04;71.95;94458.59;5045033;28;20117;-76
2023/02/28 07:57:34;;;;;;;46.90;29.95;;;;;;;6.72;72.86;94453.75;5040324;28;20047;-76
2023/02/28 07:59:59;;;;;;;48.30;28.52;;;;;;;6.66;73.15;94434.47;5039297;28;20041;-77
2023/02/28 08:02:25;;;;;;;51.85;28.10;;;;;;;6.90;72.72;94439.13;5041969;28;20370;-76
2023/02/28 08:04:50;;;;;;;51.30;30.23;;;;;;;6.74;73.26;94446.34;5038266;28;20033;-77
2023/02/28 08:07:17;;;;;;;60.70;31.40;;;;;;;6.74;73.65;94455.06;5038532;28;20137;-77
2023/02/28 08:09:43;;;;;;;50.83;27.80;;;;;;;7.16;72.58;94449.25;5038619;28;20037;-75
2023/02/28 08:12:10;;;;;;;67.05;30.50;;;;;;;6.97;73.16;94442.22;5040131;28;20033;-77
2023/02/28 08:14:35;;;;;;;52.38;29.67;;;;;;;7.01;73.36;94448.56;5042951;28;20052;-77
2023/02/28 08:17:01;;;;;;;45.72;29.08;;;;;;;7.21;72.69;94448.41;5035182;28;20044;-77
2023/02/28 08:19:27;;;;;;;57.17;30.35;;;;;;;7.37;71.81;94441.16;5034623;28;20033;-78
2023/02/28 08:21:54;;;;;;;57.35;31.70;;;;;;;7.33;71.17;94425.03;5039794;28;20051;-77
2023/02/28 08:24:19;;;;;;;51.60;33.42;;;;;;;7.59;71.11;94460.78;5036992;28;20037;-77
2023/02/28 08:26:45;;;;;;;55.22;32.05;;;;;;;7.53;70.61;94446.03;5038687;28;20611;-77
2023/02/28 08:29:10;;;;;;;61.92;31.80;;;;;;;7.40;71.01;94425.50;5036270;28;20037;-77
2023/02/28 08:31:36;;;;;;;49.03;29.80;;;;;;;7.54;71.10;94460.84;5039251;28;20021;-77
2023/02/28 08:34:06;;;;;;;50.83;31.15;;;;;;;7.49;70.81;94425.69;5038611;28;20025;-78
2023/02/28 08:36:31;;;;;;;70.22;38.17;;;;;;;7.86;70.15;94459.53;5041654;28;20132;-77
2023/02/28 08:38:57;;;;;;;77.18;41.10;;;;;;;7.68;70.83;94469.72;5038258;28;20097;-77
2023/02/28 08:41:23;;;;;;;69.07;39.00;;;;;;;7.84;69.90;94467.75;5041371;28;20052;-76
2023/02/28 08:43:48;;;;;;;73.30;41.25;;;;;;;7.70;69.80;94449.06;5042024;28;20045;-76
2023/02/28 08:46:14;;;;;;;79.35;41.95;;;;;;;7.73;69.54;94452.25;5041888;28;20530;-77
2023/02/28 08:48:40;;;;;;;94.32;51.35;;;;;;;7.58;70.61;94459.22;5039107;28;20040;-77
2023/02/28 08:51:11;;;;;;;82.05;47.47;;;;;;;7.53;70.36;94438.06;5041461;28;20041;-77
2023/02/28 08:53:39;;;;;;;84.53;44.38;;;;;;;7.52;70.55;94444.47;5037545;28;20041;-78
2023/02/28 08:56:10;;;;;;;86.68;43.00;;;;;;;7.54;70.85;94471.44;5044160;28;20039;-76
2023/02/28 08:58:36;;;;;;;82.65;40.75;;;;;;;7.44;70.78;94460.13;5050378;28;20037;-76
2023/02/28 09:01:14;;;;;;;82.65;42.10;;;;;;;7.44;71.10;94468.88;5047441;28;20055;-77
2023/02/28 09:03:41;;;;;;;79.85;41.65;;;;;;;7.36;71.92;94477.41;5036284;28;20045;-77
2023/02/28 09:06:07;;;;;;;74.63;40.35;;;;;;;7.35;71.83;94467.88;5047064;28;20055;-77
2023/02/28 09:08:32;;;;;;;77.45;40.45;;;;;;;7.43;71.95;94463.88;5039859;28;20164;-77
2023/02/28 09:10:59;;;;;;;78.10;41.50;;;;;;;7.44;71.85;94458.28;5041312;28;20046;-76
2023/02/28 09:13:25;;;;;;;69.07;38.42;;;;;;;7.47;70.90;94441.06;5039274;28;20496;-77
2023/02/28 09:15:50;;;;;;;75.80;41.17;;;;;;;7.53;71.45;94440.72;5037612;28;20029;-77
2023/02/28 09:18:16;;;;;;;72.75;38.47;;;;;;;7.53;71.80;94446.03;5035600;28;20646;-78
2023/02/28 09:20:43;;;;;;;85.10;41.25;;;;;;;7.67;71.63;94446.19;5040347;28;20053;-78
2023/02/28 09:23:10;;;;;;;74.93;39.08;;;;;;;7.76;71.86;94443.75;5039127;28;20045;-77
2023/02/28 09:25:35;;;;;;;68.60;37.53;;;;;;;7.68;72.67;94453.84;5042041;28;20033;-77
2023/02/28 09:28:02;;;;;;;66.10;36.97;;;;;;;7.76;72.28;94459.63;5039711;28;20028;-77
2023/02/28 09:30:27;;;;;;;86.03;44.40;;;;;;;7.89;72.89;94458.97;5039762;28;20619;-77
2023/02/28 09:32:53;;;;;;;86.55;48.38;;;;;;;7.86;72.70;94446.28;5042149;28;20059;-77
2023/02/28 09:35:23;;;;;;;77.57;40.42;;;;;;;7.90;72.17;94439.38;5039351;28;20175;-77
2023/02/28 09:37:51;;;;;;;65.72;37.50;;;;;;;7.92;72.04;94455.78;5040137;28;20056;-76
2023/02/28 09:40:19;;;;;;;61.42;37.05;;;;;;;8.05;72.10;94439.22;5039670;28;20039;-76
2023/02/28 09:42:50;;;;;;;61.65;35.50;;;;;;;8.19;71.84;94448.06;5039603;28;20082;-75
2023/02/28 09:45:38;;;;;;;61.25;35.00;;;;;;;7.90;73.06;94450.75;5036126;28;20045;-76
2023/02/28 09:48:18;;;;;;;65.97;36.47;;;;;;;7.81;73.28;94441.84;5042469;28;20036;-76
2023/02/28 09:50:50;;;;;;;63.80;36.25;;;;;;;8.27;72.71;94450.06;5037285;28;20061;-76
2023/02/28 09:53:28;;;;;;;58.80;36.22;;;;;;;8.45;71.76;94440.59;5034666;28;20518;-75
2023/02/28 09:56:25;;;;;;;73.97;37.72;;;;;;;8.48;71.79;94432.88;5038551;28;20100;-76
2023/02/28 09:58:58;;;;;;;66.60;36.22;;;;;;;8.57;70.54;94438.31;5025882;28;20036;-75
2023/02/28 10:01:43;;;;;;;62.22;35.55;;;;;;;8.61;70.88;94443.84;5049434;28;20035;-75
2023/02/28 10:04:51;;;;;;;63.30;35.60;;;;;;;8.73;71.02;94439.69;5050724;28;20028;-76
2023/02/28 10:07:25;;;;;;;68.32;33.45;;;;;;;8.42;70.61;94420.75;5044241;28;20045;-76
2023/02/28 10:09:57;;;;;;;66.95;34.50;;;;;;;7.79;73.80;94437.88;5041907;28;20017;-76
2023/02/28 10:12:25;;;;;;;57.25;33.78;;;;;;;8.07;72.62;94411.34;5046597;28;20040;-77
2023/02/28 10:14:54;;;;;;;66.85;36.22;;;;;;;8.05;73.10;94415.38;5045866;28;20040;-77
2023/02/28 10:17:24;;;;;;;56.08;34.20;;;;;;;8.08;73.79;94428.03;5040175;28;20037;-77
2023/02/28 10:19:49;;;;;;;63.88;34.92;;;;;;;8.25;73.73;94428.38;5045441;28;20041;-76
2023/02/28 10:22:27;;;;;;;57.47;33.85;;;;;;;8.26;72.58;94415.94;5044441;28;20107;-78
2023/02/28 10:24:59;;;;;;;56.67;32.70;;;;;;;8.29;72.67;94405.53;5044297;28;20045;-77
2023/02/28 10:27:29;;;;;;;65.78;33.83;;;;;;;8.61;71.25;94399.56;5045582;28;20389;-76
2023/02/28 10:29:59;;;;;;;52.35;30.00;;;;;;;8.47;71.16;94396.81;5043595;28;20464;-76
2023/02/28 10:32:31;;;;;;;51.35;25.75;;;;;;;8.17;72.39;94391.91;5044396;28;20096;-76
2023/02/28 10:35:08;;;;;;;48.97;25.52;;;;;;;8.14;73.19;94414.47;5042648;28;20052;-77
2023/02/28 10:37:38;;;;;;;51.42;25.80;;;;;;;7.88;73.31;94369.97;5045270;28;20295;-76
2023/02/28 10:40:26;;;;;;;44.22;24.05;;;;;;;7.71;74.91;94407.50;5040695;28;20036;-77
2023/02/28 10:43:02;;;;;;;49.55;26.75;;;;;;;7.71;76.36;94395.03;5048608;28;20033;-77
2023/02/28 10:45:34;;;;;;;44.65;22.08;;;;;;;7.85;75.31;94384.59;5042049;28;20615;-77
2023/02/28 10:48:04;;;;;;;47.90;22.40;;;;;;;8.08;75.01;94383.00;5044966;28;20712;-77
2023/02/28 10:50:50;;;;;;;42.97;18.27;;;;;;;7.44;75.82;94386.81;5041144;28;20041;-77
2023/02/28 10:53:15;;;;;;;32.75;17.92;;;;;;;7.18;77.80;94382.84;5045113;28;20049;-77
2023/02/28 10:55:41;;;;;;;37.38;18.95;;;;;;;7.31;77.97;94374.25;5041937;28;20117;-75
2023/02/28 10:58:24;;;;;;;52.10;17.67;;;;;;;7.44;78.56;94368.28;5041349;28;20024;-76
2023/02/28 11:00:51;;;;;;;35.55;17.33;;;;;;;7.27;78.27;94349.41;5041420;28;20720;-76
2023/02/28 11:03:23;;;;;;;41.75;17.08;;;;;;;7.18;78.37;94345.81;5043718;28;20808;-76
2023/02/28 11:05:49;;;;;;;43.50;17.55;;;;;;;7.07;78.36;94352.25;5044993;28;20017;-76
2023/02/28 11:08:16;;;;;;;42.70;18.55;;;;;;;6.94;78.50;94352.88;5048532;28;20045;-76
2023/02/28 11:10:55;;;;;;;35.47;18.60;;;;;;;6.78;79.52;94344.28;5043980;28;20115;-75
2023/02/28 11:13:24;;;;;;;39.80;19.55;;;;;;;6.88;79.56;94343.41;5039322;28;20025;-76
2023/02/28 11:15:53;;;;;;;42.00;21.02;;;;;;;6.98;79.73;94352.06;5040784;28;20025;-75
2023/02/28 11:18:29;;;;;;;44.00;19.15;;;;;;;6.99;79.08;94356.28;5046587;28;20046;-76
2023/02/28 11:20:57;;;;;;;32.63;17.67;;;;;;;6.81;79.04;94325.19;5039734;28;20053;-76
2023/02/28 11:23:27;;;;;;;33.53;17.27;;;;;;;6.81;79.26;94346.34;5043396;28;20036;-75
2023/02/28 11:25:58;;;;;;;49.80;19.40;;;;;;;7.03;78.73;94336.16;5039276;28;20047;-76
2023/02/28 11:28:36;;;;;;;34.20;14.55;;;;;;;6.78;78.01;94342.44;5043071;28;20033;-75
2023/02/28 11:31:06;;;;;;;28.45;12.48;;;;;;;6.86;77.60;94347.09;5041215;28;20051;-76
2023/02/28 11:33:31;;;;;;;40.38;16.63;;;;;;;6.89;78.57;94339.69;5038830;28;20048;-76